Tiempo atmosférico en la estación meteorológica de Tacoronte, Santa Cruz de Tenerife (310 m.)



Fecha
DESCASC
Temp. máxima en grados centígrados (hora)
DESCASC
Temp. mínima en grados centígrados (hora)
DESCASC
Temp. media en grados centígrados
DESCASC
Racha de viento máxima en m/sg (hora)
DESCASC
Velocidad máxima media en intervalos de 10 minutos(hora)
DESCASC
Precipitaciones diarias en mm
DESCASC
Precipitaciones de 00:00 a 06:00 en mm
DESCASC
Precipitaciones de 06:00 a 12:00 en mm
DESCASC
Precipitaciones de 12:00 a 18:00 en mm
DESCASC
Precipitaciones de 18:00 a 24:00 en mm
DESCASC
22-11-2020 26.7 (14:50) 20.2 (08:20) 23.5 13.61 (06:30) 8.33 (10:10) 0 0 0 0 0
21-11-2020 26.6 (11:50) 18 (00:20) 22.3 13.06 (23:30) 7.5 (06:10) 0 0 0 0 0
20-11-2020 25.2 (15:50) 16.3 (05:40) 20.8 9.72 (08:10) 4.72 (08:10) 0 0 0 0 0
19-11-2020 24.5 (15:20) 16.8 (00:00) 20.6 8.89 (13:50) 5.56 (11:50) 0 0 0 0 0
18-11-2020 27.9 (09:40) 18.4 (00:00) 23.1 7.5 (06:40) 5.83 (07:00) 0 0 0 0 0
17-11-2020 32 (14:10) 21.5 (00:00) 26.8 9.44 (08:40) 6.11 (08:40) 0 0 0 0 0
16-11-2020 24.8 (10:00) 17.5 (00:00) 21.1 5.83 (05:20) 4.44 (00:20) 0 0 0 0 0
15-11-2020 26 (09:30) 18.4 (00:00) 22.2 7.22 (08:50) 4.72 (08:50) 0 0 0 0 0
14-11-2020 29.2 (16:30) 19.3 (00:00) 24.3 8.06 (19:00) 5.83 (19:00) 0 0 0 0 0
13-11-2020 26.1 (11:20) 19 (00:00) 22.6 13.33 (11:30) 6.39 (09:00) 0 0 0 0 0
12-11-2020 22.7 (13:20) 17.3 (00:00) 20 7.78 (01:40) 4.44 (01:40) 0 0 0 0 0
11-11-2020 22.7 (13:10) 15.2 (00:00) 19 9.17 (04:10) 5.28 (04:00) 0 0 0 0 0
10-11-2020 24.1 (15:20) 15.6 (00:00) 19.9 12.5 (14:20) 7.5 (08:00) 0 0 0 0 0
09-11-2020 21.9 (14:30) 15.3 (00:00) 18.6 9.72 (14:00) 6.94 (13:50) 0 0 0 0 0
08-11-2020 22 (13:50) 14.5 (00:00) 18.3 5 (14:10) 3.61 (00:20) 0 0 0 0 0
07-11-2020 22.6 (14:10) 13.9 (00:00) 18.3 5.56 (07:20) 4.72 (07:20) 0 0 0 0 0
06-11-2020 22.5 (15:20) 15.1 (00:00) 18.8 12.5 (09:00) 6.11 (13:30) 0.4 0 0.4 0 0
05-11-2020 21.3 (15:40) 15.1 (00:00) 18.2 8.06 (19:10) 3.89 (17:00) 1.6 1.6 0 0 0
04-11-2020 18.7 (13:00) 15.1 (00:00) 16.9 11.39 (14:20) 7.22 (13:00) 7.8 0 2.4 2.4 3
03-11-2020 22.6 (12:40) 17.9 (00:00) 20.3 9.72 (12:20) 6.39 (13:00) 0.2 0 0 0.2 0
02-11-2020 24.3 (12:20) 16.6 (00:00) 20.4 7.22 (12:30) 4.72 (06:30) 0 0 0 0 0
01-11-2020 29.2 (13:40) 19.6 (00:00) 24.4 15.28 (05:50) 10.56 (05:50) 0 0 0 0 0
31-10-2020 30.1 (14:10) 17.2 (00:00) 23.7 15.83 (11:10) 7.5 (20:50) 0 0 0 0 0
30-10-2020 22.8 (13:30) 17.1 (00:00) 19.9 5.83 (12:40) 3.61 (13:20) 0 0 0 0 0
29-10-2020 22.9 (15:00) 17.1 (00:00) 20 6.94 (15:50) 3.89 (17:10) 0 0 0 0 0
28-10-2020 20.7 (14:30) 17.3 (00:00) 19 8.06 (12:20) 5.83 (12:20) 0.8 0 0 0 0.8
27-10-2020 23.2 (15:10) 16.3 (00:00) 19.8 9.17 (11:30) 6.11 (11:30) 0.2 0 0.2 0 0

Gráficas

Temp. máximas Temp. mínimas Temp. medias Precipitaciones Rachas de viento máximas Velocidades máximas media en intervalos de 10 minutos

Datos horarios

Fecha y hora oficial Temperatura (ºC) Velocidad del viento (km/h) Dirección del viento Racha (km/h) Dirección de racha Precipitación (mm) Presión (hPa) Tendencia (hPa) Humedad (%)
2020-11-25 23:00:00 16.5 21 Noroeste 40 Noroeste 0 -- -- 60
2020-11-25 22:00:00 16.7 22 Noroeste 42 Noroeste 0 -- -- 57
2020-11-25 21:00:00 16.6 24 Noroeste 46 Norte 0.2 -- -- 65
2020-11-25 20:00:00 16.5 21 Noroeste 45 Noroeste 0 -- -- 77
2020-11-25 19:00:00 16.6 20 Noroeste 35 Noroeste 0 -- -- 77
2020-11-25 18:00:00 16.2 18 Norte 39 Norte 0 -- -- 90
2020-11-25 17:00:00 16.9 16 Norte 43 Noroeste 0.4 -- -- 86
2020-11-25 16:00:00 21 13 Noroeste 26 Noroeste 0 -- -- 64
2020-11-25 15:00:00 19.8 15 Noroeste 24 Noroeste 0 -- -- 66
2020-11-25 14:00:00 20.2 13 Noroeste 23 Noroeste 0 -- -- 65
2020-11-25 13:00:00 21.5 11 Noroeste 23 Noroeste 0 -- -- 62
2020-11-25 12:00:00 18.7 16 Noroeste 27 Noroeste 0 -- -- 73
2020-11-25 11:00:00 21.2 8 Noroeste 15 Noroeste 0 -- -- 63
2020-11-25 10:00:00 20.9 8 Sudoeste 11 Sudoeste 0 -- -- 60
2020-11-25 09:00:00 20 6 Sudoeste 14 Sudoeste 0 -- -- 66
2020-11-25 08:00:00 16.7 8 Sur 14 Sur 0 -- -- 79
2020-11-25 07:00:00 15.9 7 Sur 12 Sur 0 -- -- 82
2020-11-25 06:00:00 15.5 9 Sur 13 Sur 0 -- -- 79
2020-11-25 05:00:00 16.1 8 Sur 13 Sur 0 -- -- 80
2020-11-25 04:00:00 16.5 8 Sur 13 Sur 0 -- -- 76
2020-11-25 03:00:00 15.8 9 Sur 13 Sudeste 0 -- -- 61
2020-11-25 02:00:00 15.6 10 Sudeste 14 Sudeste 0 -- -- 56
2020-11-25 01:00:00 16.1 10 Sur 13 Sur 0 -- -- 65
2020-11-25 00:00:00 16 10 Sudeste 13 Sudeste 0 -- -- 56
2020-11-24 23:00:00 16.5 9 Sudeste 12 Sudeste 0 -- -- 57
2020-11-24 22:00:00 17.6 6 Sur 11 Sudeste 0 -- -- 37
2020-11-24 21:00:00 17.8 9 Sudeste 18 Sudeste 0 -- -- 38
2020-11-24 20:00:00 17.6 12 Sudeste 17 Sudeste 0 -- -- 43
2020-11-24 19:00:00 18.1 10 Sudeste 13 Sudeste 0 -- -- 53
2020-11-24 18:00:00 20 2 Nordeste 8 Noroeste 0 -- -- 68
2020-11-24 17:00:00 22.3 4 Noroeste 8 Noroeste 0 -- -- 54
2020-11-24 16:00:00 23.3 3 Noroeste 6 Oeste 0 -- -- 45
2020-11-24 15:00:00 22.5 5 Oeste 11 Oeste 0 -- -- 42
2020-11-24 14:00:00 23.7 5 Oeste 11 Oeste 0 -- -- 41
2020-11-24 13:00:00 23.1 8 Sudoeste 12 Sudoeste 0 -- -- 36
2020-11-24 12:00:00 23.1 5 Oeste 8 Oeste 0 -- -- 45
2020-11-24 11:00:00 22.7 0 Calma 9 Oeste 0 -- -- 34
2020-11-24 10:00:00 22.3 3 Sudoeste 12 Sur 0 -- -- 33
2020-11-24 09:00:00 19.6 8 Sudeste 14 Sudeste 0 -- -- 37
2020-11-24 08:00:00 18.7 10 Sudeste 18 Sudeste 0 -- -- 37
2020-11-24 07:00:00 17.9 12 Sudeste 18 Sudeste 0 -- -- 39
2020-11-24 06:00:00 17.9 13 Sudeste 19 Sudeste 0 -- -- 39
2020-11-24 05:00:00 16.9 13 Sudeste 19 Sudeste 0 -- -- 46
2020-11-24 04:00:00 17 14 Sudeste 18 Sudeste 0 -- -- 53
2020-11-24 03:00:00 16.9 14 Sudeste 17 Sudeste 0 -- -- 56
2020-11-24 02:00:00 17.4 10 Sudeste 15 Sudeste 0 -- -- 56
2020-11-24 01:00:00 17.1 10 Sudeste 17 Sudeste 0 -- -- 61
2020-11-24 00:00:00 17.2 9 Sudeste 19 Sudeste 0 -- -- 58
2020-11-23 23:00:00 17.3 12 Sudeste 16 Sudeste 0 -- -- 53
2020-11-23 22:00:00 17.5 12 Sudeste 15 Sudeste 0 -- -- 49
2020-11-23 21:00:00 18.4 4 Sur 13 Sudeste 0 -- -- 47
2020-11-23 20:00:00 18.6 8 Sudeste 15 Sudeste 0 -- -- 44
2020-11-23 19:00:00 19.3 9 Sudeste 12 Sudeste 0 -- -- 43
2020-11-23 18:00:00 21.7 4 Oeste 9 Oeste 0 -- -- 43
2020-11-23 17:00:00 23.9 5 Oeste 13 Oeste 0 -- -- 35
2020-11-23 16:00:00 24.2 6 Oeste 13 Oeste 0 -- -- 40
2020-11-23 15:00:00 23.1 5 Oeste 11 Oeste 0 -- -- 43
2020-11-23 14:00:00 25.6 7 Oeste 13 Oeste 0 -- -- 35
2020-11-23 13:00:00 25.1 5 Oeste 9 Oeste -- -- -- 32
2020-11-23 12:00:00 24.5 4 Sudoeste 8 Oeste -- -- -- 32
2020-11-23 11:00:00 24.8 3 Sur 8 Oeste 0 -- -- 59
2020-11-23 10:00:00 21 5 Oeste 10 Sur 0 -- -- 49
2020-11-23 09:00:00 20.3 5 Sur 17 Sudeste 0 -- -- 38
2020-11-23 08:00:00 18.3 11 Sudeste 16 Sudeste 0 -- -- 47
2020-11-23 07:00:00 18.4 7 Sur 34 Sudeste 0 -- -- 44
2020-11-23 06:00:00 18.7 22 Sudeste 40 Sudeste 0 -- -- 67
2020-11-23 05:00:00 18.9 23 Sudeste 37 Sudeste 0 -- -- 63
2020-11-23 04:00:00 20.5 11 Sudeste 28 Sur 0 -- -- 36
2020-11-23 03:00:00 18.7 8 Sur 13 Sudeste 0 -- -- 40
2020-11-23 02:00:00 19.9 4 Sudoeste 19 Sudeste 0 -- -- 40
2020-11-23 01:00:00 21.3 7 Sudeste 28 Sudeste 0 -- -- 28
2020-11-23 00:00:00 21.4 9 Sudeste 22 Sudeste 0 -- -- 31
2020-11-22 23:00:00 21.6 7 Sur 31 Sudeste 0 -- -- 31
2020-11-22 22:00:00 21.4 17 Sudeste 31 Sudeste 0 -- -- 30
2020-11-22 21:00:00 21.1 15 Sudeste 26 Sudeste 0 -- -- 31
2020-11-22 20:00:00 21.2 8 Sudeste 21 Sudeste 0 -- -- 34
2020-11-22 19:00:00 20.8 6 Sur 12 Sur 0 -- -- 35
2020-11-22 18:00:00 21.8 3 Sur 6 Oeste 0 -- -- 39
2020-11-22 17:00:00 24.6 5 Oeste 10 Oeste 0 -- -- 31
2020-11-22 16:00:00 25.9 6 Oeste 9 Oeste 0 -- -- 30
2020-11-22 15:00:00 26.3 6 Noroeste 11 Oeste 0 -- -- 32
2020-11-22 14:00:00 24.9 6 Oeste 28 Este 0 -- -- 33
2020-11-22 13:00:00 25.8 12 Sudeste 37 Sudeste 0 -- -- 37
2020-11-22 12:00:00 23.5 21 Sudeste 40 Sudeste 0 -- -- 44
2020-11-22 11:00:00 22.9 25 Sudeste 48 Sudeste 0 -- -- 46
2020-11-22 10:00:00 21.8 29 Sudeste 47 Sudeste 0 -- -- 54
2020-11-22 09:00:00 20.8 28 Sudeste 48 Sudeste 0 -- -- 45
2020-11-22 08:00:00 20.3 28 Sudeste 46 Sudeste 0 -- -- 43
2020-11-22 07:00:00 20.6 27 Sudeste 49 Sudeste 0 -- -- 39
2020-11-22 06:00:00 20.6 24 Sudeste 47 Sudeste 0 -- -- 39
2020-11-22 05:00:00 20.5 25 Sudeste 48 Sudeste 0 -- -- 38
2020-11-22 04:00:00 20.9 22 Sudeste 41 Sudeste 0 -- -- 37
2020-11-22 03:00:00 20.7 10 Sudeste 28 Sudeste 0 -- -- 37
2020-11-22 02:00:00 21.1 9 Sur 37 Sudeste 0 -- -- 36
2020-11-22 01:00:00 21.8 16 Sur 48 Sudoeste 0 -- -- 32
2020-11-22 00:00:00 21.6 15 Sur 47 Sudeste 0 -- -- 33
2020-11-21 23:00:00 21.3 14 Sur 46 Sur 0 -- -- 36
2020-11-21 22:00:00 21.3 15 Sur 45 Sudeste 0 -- -- 37
2020-11-21 21:00:00 20.9 16 Sudeste 35 Sur 0 -- -- 44
2020-11-21 20:00:00 20.2 6 Sur 17 Sur 0 -- -- 50
2020-11-21 19:00:00 20 5 Sudoeste 12 Sudoeste 0 -- -- 66
2020-11-21 18:00:00 21.3 5 Oeste 22 Sudeste 0 -- -- 64
2020-11-21 17:00:00 24 7 Sudeste 26 Sudoeste 0 -- -- 40
2020-11-21 16:00:00 23.8 9 Oeste 30 Sudeste 0 -- -- 61
2020-11-21 15:00:00 25.7 13 Sur 32 Sudeste 0 -- -- 35
2020-11-21 14:00:00 26.2 14 Sur 31 Sur 0 -- -- 30
2020-11-21 13:00:00 25 10 Oeste 27 Sudoeste 0 -- -- 37
2020-11-21 12:00:00 26.1 12 Sur 22 Sudeste 0 -- -- 34
2020-11-21 11:00:00 26.2 2 Noroeste 9 Norte 0 -- -- 32
2020-11-21 10:00:00 25.9 3 Nordeste 21 Sudeste 0 -- -- 32
2020-11-21 09:00:00 21.8 16 Sudeste 32 Sudeste 0 -- -- 46
2020-11-21 08:00:00 19.3 23 Sudeste 34 Sudeste 0 -- -- 44
2020-11-21 07:00:00 19.8 25 Sudeste 40 Sudeste 0 -- -- 44
2020-11-21 06:00:00 19.9 27 Sudeste 43 Sudeste 0 -- -- 51
2020-11-21 05:00:00 20.7 26 Sudeste 39 Sudeste 0 -- -- 39
2020-11-21 04:00:00 21.3 19 Sudeste 34 Sur 0 -- -- 34
2020-11-21 03:00:00 21.6 15 Sudeste 31 Sudeste 0 -- -- 29
2020-11-21 02:00:00 20.5 6 Sur 20 Sudeste 0 -- -- 34
2020-11-21 01:00:00 19.3 3 Sudoeste 13 Sudeste 0 -- -- 47
2020-11-21 00:00:00 18.1 6 Sudeste 13 Sudeste 0 -- -- 54
2020-11-20 23:00:00 17.8 8 Sudeste 15 Sudeste 0 -- -- 54
2020-11-20 22:00:00 18.3 7 Sudeste 13 Sudeste 0 -- -- 60
2020-11-20 21:00:00 18.7 13 Sudeste 18 Sudeste 0 -- -- 58
2020-11-20 20:00:00 19 10 Sudeste 13 Sudeste 0 -- -- 62
2020-11-20 19:00:00 19.7 8 Sudeste 12 Sudeste 0 -- -- 62
2020-11-20 18:00:00 21.3 0 Calma 8 Oeste 0 -- -- 66
2020-11-20 17:00:00 21.9 7 Oeste 10 Oeste 0 -- -- 73
2020-11-20 16:00:00 25.1 5 Oeste 12 Oeste 0 -- -- 57
2020-11-20 15:00:00 23.7 6 Oeste 21 Oeste 0 -- -- 70
2020-11-20 14:00:00 22.6 11 Oeste 19 Oeste 0 -- -- 72
2020-11-20 13:00:00 22 12 Oeste 20 Sudoeste 0 -- -- 74
2020-11-20 12:00:00 21.6 10 Oeste 16 Sudoeste 0 -- -- 73
2020-11-20 11:00:00 21.4 10 Oeste 20 Oeste 0 -- -- 69
2020-11-20 10:00:00 21.6 8 Sudoeste 15 Oeste 0 -- -- 64
2020-11-20 09:00:00 21 4 Oeste 35 Sudeste 0 -- -- 66
2020-11-20 08:00:00 17.7 9 Sudeste 15 Sudeste 0 -- -- 71
2020-11-20 07:00:00 17.5 3 Sudoeste 14 Sudeste 0 -- -- 64
2020-11-20 06:00:00 16.9 6 Sur 17 Sudeste 0 -- -- 78
2020-11-20 05:00:00 16.5 9 Sudeste 17 Este 0 -- -- 77
2020-11-20 04:00:00 17.1 12 Sudeste 19 Este 0 -- -- 76
2020-11-20 03:00:00 17.9 4 Sur 18 Sur 0 -- -- 69
2020-11-20 02:00:00 17.9 8 Sur 21 Sudoeste 0 -- -- 61
2020-11-20 01:00:00 17.7 9 Sudeste 20 Sudeste 0 -- -- 67
2020-11-20 00:00:00 17 12 Sudeste 16 Sudeste 0 -- -- 79
2020-11-19 23:00:00 17.2 10 Sudeste 15 Sudeste 0 -- -- 79
2020-11-19 22:00:00 17.7 9 Sudeste 22 Este 0 -- -- 80
2020-11-19 21:00:00 18.3 10 Sudeste 19 Sudeste 0 -- -- 77
2020-11-19 20:00:00 18.9 11 Sudeste 27 Sudeste 0 -- -- 76
2020-11-19 19:00:00 19.4 10 Sudeste 18 Sur 0 -- -- 74
2020-11-19 18:00:00 20.9 5 Nordeste 15 Oeste 0 -- -- 74
2020-11-19 17:00:00 22.2 8 Oeste 17 Noroeste 0 -- -- 68
2020-11-19 16:00:00 23.2 11 Oeste 19 Oeste 0 -- -- 66
2020-11-19 15:00:00 24.1 8 Oeste 20 Oeste 0 -- -- 62
2020-11-19 14:00:00 24.2 9 Sudoeste 32 Sudeste 0 -- -- 60
2020-11-19 13:00:00 23.7 9 Sudoeste 28 Este 0 -- -- 66
2020-11-19 12:00:00 23 18 Nordeste 30 Nordeste 0 -- -- 68
2020-11-19 11:00:00 22.3 14 Nordeste 21 Nordeste 0 -- -- 70
2020-11-19 10:00:00 21.2 13 Este 25 Este 0 -- -- 68
2020-11-19 09:00:00 18.8 16 Este 27 Este 0 -- -- 91
2020-11-19 08:00:00 18.1 14 Este 28 Nordeste 0 -- -- 93
2020-11-19 07:00:00 18.5 8 Nordeste 13 Este 0 -- -- 92
2020-11-19 06:00:00 17.8 6 Sudeste 13 Este 0 -- -- 89
2020-11-19 05:00:00 17.8 9 Este 15 Este 0 -- -- 89
2020-11-19 04:00:00 18.2 8 Este 13 Nordeste 0 -- -- 92
2020-11-19 03:00:00 18.4 8 Este 15 Nordeste 0 -- -- 92
2020-11-19 02:00:00 18.7 6 Este 10 Nordeste 0 -- -- 88
2020-11-19 01:00:00 18 6 Sudeste 12 Sudeste 0 -- -- 88
2020-11-19 00:00:00 18.4 6 Sudeste 9 Este 0 -- -- 90
2020-11-18 23:00:00 19 6 Este 12 Nordeste 0 -- -- 91
2020-11-18 22:00:00 19.1 6 Este 12 Nordeste 0 -- -- 92
2020-11-18 21:00:00 19.2 6 Nordeste 13 Nordeste 0 -- -- 93
2020-11-18 20:00:00 18.7 7 Este 10 Este 0 -- -- 92
2020-11-18 19:00:00 19.8 7 Nordeste 13 Nordeste 0 -- -- 90
2020-11-18 18:00:00 20.4 6 Norte 15 Norte 0 -- -- 89
2020-11-18 17:00:00 21.3 8 Noroeste 15 Noroeste 0 -- -- 86
2020-11-18 16:00:00 23 6 Noroeste 19 Noroeste 0 -- -- 79
2020-11-18 15:00:00 23.3 8 Oeste 18 Noroeste 0 -- -- 78
2020-11-18 14:00:00 23.5 7 Norte 15 Noroeste 0 -- -- 77
2020-11-18 13:00:00 22.9 9 Oeste 18 Sudoeste 0 -- -- 78
2020-11-18 12:00:00 25.7 5 Noroeste 10 Noroeste 0 -- -- 43
2020-11-18 11:00:00 25.8 4 Oeste 11 Oeste 0 -- -- 36
2020-11-18 10:00:00 27.3 4 Noroeste 13 Este 0 -- -- 31
2020-11-18 09:00:00 24.2 9 Este 14 Este 0 -- -- 31
2020-11-18 08:00:00 22.9 12 Sudeste 27 Sudeste 0 -- -- 31
2020-11-18 07:00:00 21.3 21 Sudeste 27 Sudeste 0 -- -- 33
2020-11-18 06:00:00 20.3 15 Sudeste 26 Sudeste 0 -- -- 37
2020-11-18 05:00:00 20.5 18 Sudeste 26 Sudeste 0 -- -- 35
2020-11-18 04:00:00 20.2 19 Sudeste 25 Sudeste 0 -- -- 36
2020-11-18 03:00:00 20.3 16 Sudeste 19 Sudeste 0 -- -- 37
2020-11-18 02:00:00 20.6 9 Sudeste 21 Sudeste 0 -- -- 36
2020-11-18 01:00:00 21.4 16 Sudeste 23 Sudeste 0 -- -- 35
2020-11-18 00:00:00 21.8 18 Sudeste 24 Sudeste 0 -- -- 34
2020-11-17 23:00:00 22.3 19 Sudeste 23 Sudeste 0 -- -- 33
2020-11-17 22:00:00 22.1 17 Sudeste 24 Sudeste 0 -- -- 34
2020-11-17 21:00:00 23.1 15 Sudeste 21 Sudeste 0 -- -- 32
2020-11-17 20:00:00 23.4 13 Sudeste 18 Sudeste 0 -- -- 32
2020-11-17 19:00:00 23.4 12 Sudeste 17 Sudeste 0 -- -- 33
2020-11-17 18:00:00 25.2 3 Noroeste 9 Nordeste 0 -- -- 37
2020-11-17 17:00:00 27 6 Noroeste 15 Nordeste 0 -- -- 37
2020-11-17 16:00:00 29.1 7 Norte 16 Norte 0 -- -- 28
2020-11-17 15:00:00 30.4 5 Noroeste 10 Oeste 0 -- -- 22
2020-11-17 14:00:00 31.3 5 Oeste 10 Sudoeste 0 -- -- 21
2020-11-17 13:00:00 30.1 8 Oeste 15 Oeste 0 -- -- 22
2020-11-17 12:00:00 30.1 8 Oeste 13 Sudoeste 0 -- -- 21
2020-11-17 11:00:00 29.6 4 Oeste 20 Sudeste 0 -- -- 22
2020-11-17 10:00:00 27.8 14 Sudeste 31 Sudeste 0 -- -- 26
2020-11-17 09:00:00 26.3 22 Sudeste 34 Sudeste 0 -- -- 25
2020-11-17 08:00:00 23.8 20 Sudeste 27 Sudeste 0 -- -- 29
2020-11-17 07:00:00 23.3 13 Sudeste 19 Sudeste 0 -- -- 30
2020-11-17 06:00:00 24.4 6 Sur 25 Sudeste 0 -- -- 29
2020-11-17 05:00:00 23 13 Sudeste 21 Sudeste 0 -- -- 33
2020-11-17 04:00:00 22.3 7 Sudeste 14 Sudeste 0 -- -- 39
2020-11-17 03:00:00 22.1 5 Sur 9 Sudeste 0 -- -- 42
2020-11-17 02:00:00 21.7 7 Sudeste 12 Sudeste 0 -- -- 43
2020-11-17 01:00:00 22.4 5 Este 13 Sudeste 0 -- -- 41
2020-11-17 00:00:00 21.5 9 Sudeste 15 Sudeste 0 -- -- 44
2020-11-16 23:00:00 21 7 Sudeste 11 Sudeste 0 -- -- 49
2020-11-16 22:00:00 21.1 5 Sudoeste 10 Este 0 -- -- 50
2020-11-16 21:00:00 21.6 8 Sudeste 13 Sudeste 0 -- -- 41
2020-11-16 20:00:00 21.3 4 Sudoeste 13 Sudeste 0 -- -- 51
2020-11-16 19:00:00 20 6 Sudeste 12 Sudeste 0 -- -- 76
2020-11-16 18:00:00 21.6 5 Oeste 10 Nordeste 0 -- -- 88
2020-11-16 17:00:00 23.2 4 Oeste 18 Este 0 -- -- 82
2020-11-16 16:00:00 23.7 11 Nordeste 19 Este 0 -- -- 83
2020-11-16 15:00:00 22.8 12 Nordeste 19 Nordeste 0 -- -- 84
2020-11-16 14:00:00 22.7 5 Oeste 12 Noroeste 0 -- -- 85
2020-11-16 13:00:00 23.4 4 Noroeste 13 Oeste 0 -- -- 84
2020-11-16 12:00:00 21.3 3 Norte 11 Noroeste 0 -- -- 89
2020-11-16 11:00:00 22 5 Noroeste 10 Noroeste 0 -- -- 84
2020-11-16 10:00:00 24.8 5 Norte 11 Oeste 0 -- -- 63
2020-11-16 09:00:00 23 3 Sur 10 Sur 0 -- -- 63
2020-11-16 08:00:00 18.7 7 Sudeste 18 Este 0 -- -- 64
2020-11-16 07:00:00 18.8 13 Sudeste 19 Este 0 -- -- 56
2020-11-16 06:00:00 19.6 13 Sudeste 21 Este 0 -- -- 57
2020-11-16 05:00:00 18.9 13 Sudeste 20 Sudeste 0 -- -- 68
2020-11-16 04:00:00 19.1 12 Este 18 Sudeste 0 -- -- 68
2020-11-16 03:00:00 18 8 Sudeste 12 Sudeste 0 -- -- 70
2020-11-16 02:00:00 19.6 10 Este 18 Este 0 -- -- 77
2020-11-16 01:00:00 19 14 Sudeste 21 Sudeste 0 -- -- 80
2020-11-16 00:00:00 19.6 15 Sudeste 22 Sudeste 0 -- -- 79
2020-11-15 23:00:00 19.3 17 Sudeste 23 Este 0 -- -- 86
2020-11-15 22:00:00 19.9 13 Este 19 Este 0 -- -- 94
2020-11-15 21:00:00 19.5 8 Este 11 Este 0 -- -- 85
2020-11-15 20:00:00 19.9 2 Sudeste 7 Oeste 0 -- -- 91
2020-11-15 19:00:00 20.6 4 Oeste 14 Noroeste 0 -- -- 88
2020-11-15 18:00:00 21.9 9 Oeste 14 Sudoeste 0 -- -- 81
2020-11-15 17:00:00 23.5 14 Este 22 Nordeste 0 -- -- 74
2020-11-15 16:00:00 25 9 Nordeste 17 Nordeste 0 -- -- 69
2020-11-15 15:00:00 25.1 6 Noroeste 14 Oeste 0 -- -- 66
2020-11-15 14:00:00 24.4 4 Norte 12 Norte 0 -- -- 70
2020-11-15 13:00:00 24.7 6 Norte 16 Nordeste 0 -- -- 67
2020-11-15 12:00:00 24.5 10 Nordeste 20 Norte 0 -- -- 67
2020-11-15 11:00:00 25.2 11 Nordeste 23 Nordeste 0 -- -- 64
2020-11-15 10:00:00 24.9 7 Nordeste 17 Nordeste 0 -- -- 62
2020-11-15 09:00:00 22.6 12 Este 26 Este 0 -- -- 66
2020-11-15 08:00:00 19.4 14 Este 22 Sudeste 0 -- -- 69
2020-11-15 07:00:00 18.8 10 Sudeste 17 Este 0 -- -- 62
2020-11-15 06:00:00 19.9 11 Sudeste 22 Sudeste 0 -- -- 56
2020-11-15 05:00:00 20 15 Sudeste 21 Este 0 -- -- 61
2020-11-15 04:00:00 19.9 14 Sudeste 20 Sudeste 0 -- -- 58
2020-11-15 03:00:00 18.8 13 Este 17 Sudeste 0 -- -- 71
2020-11-15 02:00:00 18.9 10 Sudeste 24 Este 0 -- -- 80
2020-11-15 01:00:00 20.6 3 Sudoeste 21 Sudeste 0 -- -- 53
2020-11-15 00:00:00 20.2 15 Este 22 Este 0 -- -- 75
2020-11-14 23:00:00 20.3 5 Sur 14 Este 0 -- -- 68
2020-11-14 22:00:00 20.5 10 Sudeste 17 Sudeste 0 -- -- 52
2020-11-14 21:00:00 20.8 4 Este 16 Nordeste 0 -- -- 57
2020-11-14 20:00:00 22.5 4 Sur 26 Este 0 -- -- 49
2020-11-14 19:00:00 21.5 21 Este 29 Este 0 -- -- 75
2020-11-14 18:00:00 23.1 5 Oeste 12 Sudoeste 0 -- -- 70
2020-11-14 17:00:00 28 7 Nordeste 24 Nordeste 0 -- -- 53
2020-11-14 16:00:00 25.1 15 Nordeste 26 Norte 0 -- -- 67
2020-11-14 15:00:00 24.6 18 Nordeste 27 Nordeste 0 -- -- 70
2020-11-14 14:00:00 26 10 Norte 26 Nordeste 0 -- -- 68
2020-11-14 13:00:00 25.8 7 Noroeste 22 Sudoeste 0 -- -- 64
2020-11-14 12:00:00 28.3 8 Nordeste 15 Este 0 -- -- 46
2020-11-14 11:00:00 24.9 13 Este 23 Sudeste 0 -- -- 64
2020-11-14 10:00:00 22 3 Norte 19 Sudeste 0 -- -- 67
2020-11-14 09:00:00 20.5 8 Sudoeste 16 Sudeste 0 -- -- 70
2020-11-14 08:00:00 21.8 15 Sudeste 22 Sudeste 0 -- -- 36
2020-11-14 07:00:00 20.7 10 Sudeste 19 Sudeste 0 -- -- 41
2020-11-14 06:00:00 20.6 15 Sudeste 21 Sudeste 0 -- -- 43
2020-11-14 05:00:00 20.6 6 Sur 15 Sudeste 0 -- -- 45
2020-11-14 04:00:00 19.6 5 Sur 16 Sudeste 0 -- -- 60
2020-11-14 03:00:00 19.9 8 Sudeste 17 Sudeste 0 -- -- 70
2020-11-14 02:00:00 20.4 7 Sur 12 Sur 0 -- -- 58
2020-11-14 01:00:00 20.4 7 Sudoeste 14 Sudeste 0 -- -- 71
2020-11-14 00:00:00 20.3 9 Sudeste 15 Sudeste 0 -- -- 55
2020-11-13 23:00:00 19.5 5 Sur 17 Oeste 0 -- -- 63
2020-11-13 22:00:00 20.6 6 Sur -- -- 0 -- -- 71
2020-11-13 21:00:00 19.9 8 Sudoeste 23 Oeste 0 -- -- 90
2020-11-13 20:00:00 20.9 8 Sudoeste 21 Oeste 0 -- -- 78
2020-11-13 19:00:00 21.1 10 Sudoeste 22 Sudoeste 0 -- -- 73
2020-11-13 18:00:00 20.4 6 Este 14 Nordeste 0 -- -- 89
2020-11-13 17:00:00 21.2 8 Nordeste 21 Nordeste 0 -- -- 89
2020-11-13 16:00:00 21.6 8 Norte 17 Nordeste 0 -- -- 85
2020-11-13 15:00:00 21.8 4 Nordeste 18 Nordeste 0 -- -- 86
2020-11-13 14:00:00 21.8 11 Sudeste 19 Sudeste 0 -- -- 79
2020-11-13 13:00:00 20.8 12 Sudoeste 41 Sudoeste 0 -- -- 86
2020-11-13 12:00:00 22 12 Sudoeste 48 Sudoeste 0 -- -- 78
2020-11-13 11:00:00 21.9 9 Sur 17 Oeste 0 -- -- 72
2020-11-13 10:00:00 21 6 Sudoeste 28 Sudeste 0 -- -- 75
2020-11-13 09:00:00 23.4 23 Sudeste 37 Sudeste 0 -- -- 50
2020-11-13 08:00:00 19.4 5 Sur 17 Oeste 0 -- -- 86
2020-11-13 07:00:00 19.9 9 Sudoeste 23 Sudoeste 0 -- -- 77
2020-11-13 06:00:00 19.8 13 Sudoeste 20 Sudoeste 0 -- -- 74
2020-11-13 05:00:00 20.1 8 Sudoeste 13 Sudeste 0 -- -- 74
2020-11-13 04:00:00 20.8 8 Sudeste 11 Sudeste 0 -- -- 60
2020-11-13 03:00:00 20.5 2 Sur 15 Sudeste 0 -- -- 63
2020-11-13 02:00:00 19.4 9 Sudoeste 18 Sudoeste 0 -- -- 86
2020-11-13 01:00:00 20.2 9 Sudoeste 17 Sudoeste 0 -- -- 76
2020-11-13 00:00:00 19.8 8 Sur 21 Sudeste 0 -- -- 76
2020-11-12 23:00:00 19.5 12 Sudoeste 18 Sudoeste 0 -- -- 89
2020-11-12 22:00:00 20.6 10 Sudeste 17 Este 0 -- -- 63
2020-11-12 21:00:00 19.4 3 Noroeste 15 Sudeste 0 -- -- 75
2020-11-12 20:00:00 18.6 6 Sudeste 12 Sudeste 0 -- -- 93
2020-11-12 19:00:00 18.6 4 Este 8 Sudoeste 0 -- -- 93
2020-11-12 18:00:00 19.6 7 Sudoeste 12 Noroeste 0 -- -- 91
2020-11-12 17:00:00 20.1 4 Oeste 15 Oeste 0 -- -- 90
2020-11-12 16:00:00 20.6 7 Sudoeste 15 Oeste 0 -- -- 85
2020-11-12 15:00:00 20.9 9 Oeste 22 Sudoeste 0 -- -- 82
2020-11-12 14:00:00 21.4 13 Sudoeste 25 Oeste 0 -- -- 77
2020-11-12 13:00:00 21 9 Oeste 14 Noroeste 0 -- -- 82
2020-11-12 12:00:00 22.1 5 Oeste 13 Oeste 0 -- -- 79
2020-11-12 11:00:00 20.3 6 Oeste 13 Oeste 0 -- -- 81
2020-11-12 10:00:00 20.7 0 Calma 6 Oeste 0 -- -- 74
2020-11-12 09:00:00 19.1 3 Este 9 Nordeste 0 -- -- 76
2020-11-12 08:00:00 17.7 5 Sur 10 Sur 0 -- -- 76
2020-11-12 07:00:00 17.9 5 Sudoeste 17 Nordeste 0 -- -- 77
2020-11-12 06:00:00 17.7 4 Este 9 Sudeste 0 -- -- 74
2020-11-12 05:00:00 17.6 3 Sudeste 14 Sudeste 0 -- -- 78
2020-11-12 04:00:00 17.8 2 Sudeste 13 Sudoeste 0 -- -- 77
2020-11-12 03:00:00 18.2 6 Sudoeste 11 Oeste 0 -- -- 78
2020-11-12 02:00:00 18.4 6 Sudeste 28 Sudeste 0 -- -- 74
2020-11-12 01:00:00 18.1 7 Sudoeste 17 Este 0 -- -- 82
2020-11-12 00:00:00 18.1 5 Oeste 12 Sudeste 0 -- -- 82
2020-11-11 23:00:00 17.9 10 Este 19 Este 0 -- -- 84
2020-11-11 22:00:00 17.8 10 Este 19 Este 0 -- -- 87
2020-11-11 21:00:00 17.8 9 Este 16 Este 0 -- -- 89
2020-11-11 20:00:00 18 7 Este 16 Este 0 -- -- 87
2020-11-11 19:00:00 18.3 10 Este 19 Nordeste 0 -- -- 86
2020-11-11 18:00:00 18.5 11 Nordeste 19 Este 0 -- -- 85
2020-11-11 17:00:00 20 8 Nordeste 20 Nordeste 0 -- -- 79
2020-11-11 16:00:00 21.5 12 Nordeste 19 Nordeste 0 -- -- 72
2020-11-11 15:00:00 20.8 6 Nordeste 13 Norte 0 -- -- 76
2020-11-11 14:00:00 21.2 5 Norte 15 Oeste 0 -- -- 73
2020-11-11 13:00:00 22.4 6 Noroeste 13 Noroeste 0 -- -- 69
2020-11-11 12:00:00 21.7 6 Noroeste 15 Norte 0 -- -- 71
2020-11-11 11:00:00 20.7 5 Norte 12 Nordeste 0 -- -- 73
2020-11-11 10:00:00 19.6 4 Nordeste 8 Este 0 -- -- 74
2020-11-11 09:00:00 19.8 0 Calma 14 Sudeste 0 -- -- 67
2020-11-11 08:00:00 16.5 6 Sur 23 Sudoeste 0 -- -- 81
2020-11-11 07:00:00 16.2 8 Sudoeste 16 Oeste 0 -- -- 76
2020-11-11 06:00:00 17 9 Sudeste 23 Sudoeste 0 -- -- 76
2020-11-11 05:00:00 17.1 9 Sur 33 Este 0 -- -- 69
2020-11-11 04:00:00 16.8 19 Sudeste 31 Este 0 -- -- 81
2020-11-11 03:00:00 16.2 12 Sudeste 22 Sudeste 0 -- -- 80
2020-11-11 02:00:00 15.7 13 Sudeste 18 Sudeste 0 -- -- 73
2020-11-11 01:00:00 15.5 13 Sudeste 21 Sudeste 0 -- -- 70
2020-11-11 00:00:00 15.6 13 Sudeste 21 Sudeste 0 -- -- 74
2020-11-10 23:00:00 15.9 13 Sudeste 21 Sudeste 0 -- -- 81
2020-11-10 22:00:00 16.4 9 Sudeste 25 Sudeste 0 -- -- 79
2020-11-10 21:00:00 17 12 Sudeste 20 Sudeste 0 -- -- 78
2020-11-10 20:00:00 17.4 12 Sudeste 27 Sudeste 0 -- -- 76
2020-11-10 19:00:00 18.1 18 Sudeste 28 Este 0 -- -- 75
2020-11-10 18:00:00 18.8 17 Sudeste 29 Sudeste 0 -- -- 72
2020-11-10 17:00:00 20.5 18 Sudeste 38 Sudeste 0 -- -- 66
2020-11-10 16:00:00 23.5 7 Oeste 14 Oeste 0 -- -- 55
2020-11-10 15:00:00 23.1 7 Oeste 45 Este 0 -- -- 57
2020-11-10 14:00:00 23.3 8 Oeste 44 Sudeste 0 -- -- 58
2020-11-10 13:00:00 22.4 15 Sudeste 39 Sudeste 0 -- -- 58
2020-11-10 12:00:00 21.5 22 Sudeste 42 Sudeste 0 -- -- 64
2020-11-10 11:00:00 20.9 8 Sudoeste 27 Este 0 -- -- 67
2020-11-10 10:00:00 20.9 6 Sudoeste 33 Este 0 -- -- 67
2020-11-10 09:00:00 19.4 15 Sudeste 38 Sudeste 0 -- -- 74
2020-11-10 08:00:00 17.7 27 Este 42 Este 0 -- -- 80
2020-11-10 07:00:00 17.5 17 Este 31 Sudeste 0 -- -- 82
2020-11-10 06:00:00 17.2 14 Sudeste 32 Este 0 -- -- 83
2020-11-10 05:00:00 17.6 20 Este 33 Este 0 -- -- 80
2020-11-10 04:00:00 17.8 18 Este 43 Este 0 -- -- 80
2020-11-10 03:00:00 17.7 22 Este 41 Este 0 -- -- 83
2020-11-10 02:00:00 17.7 20 Este 34 Este 0 -- -- 83
2020-11-10 01:00:00 17.6 20 Este 32 Sudeste 0 -- -- 84
2020-11-10 00:00:00 17.9 20 Sudeste 32 Este 0 -- -- 81
2020-11-09 23:00:00 17.8 15 Sudeste 27 Este 0 -- -- 81
2020-11-09 22:00:00 17.8 14 Sudeste 27 Sudeste 0 -- -- 78
2020-11-09 21:00:00 17.6 12 Este 23 Este 0 -- -- 80
2020-11-09 20:00:00 17.7 15 Este 22 Este 0 -- -- 80
2020-11-09 19:00:00 17.8 13 Este 21 Este 0 -- -- 79
2020-11-09 18:00:00 18.9 17 Este 32 Este 0 -- -- 78
2020-11-09 17:00:00 20.1 19 Nordeste 33 Nordeste 0 -- -- 74
2020-11-09 16:00:00 20.1 23 Nordeste 34 Nordeste 0 -- -- 73
2020-11-09 15:00:00 21.8 24 Nordeste 33 Nordeste 0 -- -- 67
2020-11-09 14:00:00 21 24 Nordeste 35 Este 0 -- -- 75
2020-11-09 13:00:00 20.9 18 Nordeste 30 Nordeste 0 -- -- 78
2020-11-09 12:00:00 21.3 15 Nordeste 22 Nordeste 0 -- -- 69
2020-11-09 11:00:00 19.5 9 Este 24 Este 0 -- -- 76
2020-11-09 10:00:00 20.7 9 Este 17 Este 0 -- -- 72
2020-11-09 09:00:00 18.2 11 Este 18 Sudeste 0 -- -- 85
2020-11-09 08:00:00 16.5 11 Sudeste 21 Sudeste 0 -- -- 87
2020-11-09 07:00:00 15.9 11 Sudeste 17 Sudeste 0 -- -- 87
2020-11-09 06:00:00 15.8 12 Sudeste 15 Sudeste 0 -- -- 89
2020-11-09 05:00:00 15.7 12 Sudeste 16 Sudeste 0 -- -- 89
2020-11-09 04:00:00 15.8 10 Sudeste 14 Sudeste 0 -- -- 88
2020-11-09 03:00:00 16.3 8 Sudeste 18 Sudeste 0 -- -- 88
2020-11-09 02:00:00 15.6 11 Sudeste 16 Sudeste 0 -- -- 86
2020-11-09 01:00:00 15.3 13 Sudeste 16 Sudeste 0 -- -- 86
2020-11-09 00:00:00 15.7 12 Sudeste 15 Sudeste 0 -- -- 86
2020-11-08 23:00:00 16 9 Sudeste 12 Sudeste 0 -- -- 86
2020-11-08 22:00:00 16.9 6 Sudeste 10 Sur 0 -- -- 82
2020-11-08 21:00:00 16.2 8 Sudeste 14 Sudeste 0 -- -- 83
2020-11-08 20:00:00 16.2 11 Sudeste 13 Sudeste 0 -- -- 83
2020-11-08 19:00:00 17.4 3 Sudeste 5 Este 0 -- -- 79
2020-11-08 18:00:00 18.5 3 Norte 9 Noroeste 0 -- -- 74
2020-11-08 17:00:00 19.4 6 Noroeste 11 Noroeste 0 -- -- 72
2020-11-08 16:00:00 21.4 6 Noroeste 15 Oeste 0 -- -- 65
2020-11-08 15:00:00 21 10 Noroeste 18 Noroeste 0 -- -- 67
2020-11-08 14:00:00 22 8 Noroeste 14 Noroeste 0 -- -- 64
2020-11-08 13:00:00 21 6 Noroeste 12 Noroeste 0 -- -- 67
2020-11-08 12:00:00 20.2 4 Noroeste 9 Noroeste 0 -- -- 71
2020-11-08 11:00:00 19.8 4 Noroeste 8 Noroeste 0 -- -- 70
2020-11-08 10:00:00 20.8 4 Noroeste 6 Noroeste 0 -- -- 67
2020-11-08 09:00:00 19.5 5 Sur 14 Sudeste 0 -- -- 70
2020-11-08 08:00:00 14.9 11 Sudeste 15 Sudeste 0 -- -- 81
2020-11-08 07:00:00 14.6 11 Sudeste 15 Sudeste 0 -- -- 77
2020-11-08 06:00:00 14.8 10 Sudeste 16 Sudeste 0 -- -- 82
2020-11-08 05:00:00 14.8 12 Sudeste 15 Sudeste 0 -- -- 84
2020-11-08 04:00:00 14.9 13 Sudeste 16 Sudeste 0 -- -- 85
2020-11-08 03:00:00 15.3 12 Sudeste 17 Sudeste 0 -- -- 85
2020-11-08 02:00:00 15.6 12 Sudeste 17 Sudeste 0 -- -- 84
2020-11-08 01:00:00 16.1 12 Sudeste 16 Sudeste 0 -- -- 84
2020-11-08 00:00:00 15.9 12 Sudeste 17 Sudeste 0 -- -- 83
2020-11-07 23:00:00 15.8 12 Sudeste 16 Sudeste 0 -- -- 83
2020-11-07 22:00:00 16 12 Sudeste 17 Sudeste 0 -- -- 83
2020-11-07 21:00:00 16.9 7 Sudeste 13 Sudeste 0 -- -- 85
2020-11-07 20:00:00 17.8 3 Sudeste 6 Sudeste 0 -- -- 83
2020-11-07 19:00:00 18.5 2 Noroeste 9 Noroeste 0 -- -- 79
2020-11-07 18:00:00 19.5 6 Noroeste 11 Noroeste 0 -- -- 75
2020-11-07 17:00:00 19.9 7 Noroeste 16 Noroeste 0 -- -- 73
2020-11-07 16:00:00 22.2 8 Noroeste 17 Oeste 0 -- -- 65
2020-11-07 15:00:00 21.7 9 Noroeste 17 Noroeste 0 -- -- 68
2020-11-07 14:00:00 21.7 9 Noroeste 13 Noroeste 0 -- -- 67
2020-11-07 13:00:00 21 8 Noroeste 15 Noroeste 0 -- -- 69
2020-11-07 12:00:00 21.9 6 Noroeste 9 Noroeste 0 -- -- 62
2020-11-07 11:00:00 20.8 4 Norte 8 Nordeste 0 -- -- 65
2020-11-07 10:00:00 21.6 4 Oeste 6 Oeste 0 -- -- 63
2020-11-07 09:00:00 19.8 5 Sur 14 Sur 0 -- -- 63
2020-11-07 08:00:00 14.5 13 Sudeste 20 Sudeste 0 -- -- 74
2020-11-07 07:00:00 14 15 Sudeste 20 Sudeste 0 -- -- 70
2020-11-07 06:00:00 14.2 13 Sudeste 19 Sudeste 0 -- -- 70
2020-11-07 05:00:00 14.3 14 Sudeste 19 Sudeste 0 -- -- 72
2020-11-07 04:00:00 14.4 14 Sudeste 19 Sudeste 0 -- -- 76
2020-11-07 03:00:00 14.6 13 Sudeste 17 Sudeste 0 -- -- 74
2020-11-07 02:00:00 14.9 12 Sudeste 17 Sudeste 0 -- -- 78
2020-11-07 01:00:00 15.1 12 Sudeste 18 Sudeste 0 -- -- 81
2020-11-07 00:00:00 15.5 10 Sudeste 18 Sudeste 0 -- -- 81
2020-11-06 23:00:00 15.7 11 Sudeste 15 Sudeste 0 -- -- 80
2020-11-06 22:00:00 16 11 Sudeste 15 Sudeste 0 -- -- 78
2020-11-06 21:00:00 17.7 6 Sur 11 Sur 0 -- -- 75
2020-11-06 20:00:00 18.9 6 Noroeste 22 Noroeste 0 -- -- 73
2020-11-06 19:00:00 19 9 Noroeste 23 Oeste 0 -- -- 72
2020-11-06 18:00:00 19.2 11 Noroeste 29 Noroeste 0 -- -- 71
2020-11-06 17:00:00 20 18 Noroeste 31 Noroeste 0 -- -- 69
2020-11-06 16:00:00 20.7 8 Noroeste 28 Oeste 0 -- -- 70
2020-11-06 15:00:00 21.9 12 Oeste 27 Noroeste 0 -- -- 66
2020-11-06 14:00:00 18.8 17 Noroeste 37 Noroeste 0 -- -- 82
2020-11-06 13:00:00 20.6 9 Sudeste 38 Oeste 0 -- -- 71
2020-11-06 12:00:00 20.3 14 Noroeste 36 Noroeste 0 -- -- 73
2020-11-06 11:00:00 19.4 14 Sudoeste 35 Oeste 0 -- -- 75
2020-11-06 10:00:00 17.8 19 Noroeste 40 Oeste 0.2 -- -- 89
2020-11-06 09:00:00 17.2 14 Nordeste 45 Sudoeste 0.2 -- -- 91
2020-11-06 08:00:00 19 9 Oeste 37 Sudoeste 0 -- -- 73
2020-11-06 07:00:00 18 17 Sudoeste 32 Oeste 0 -- -- 80
2020-11-06 06:00:00 18.8 12 Oeste 24 Oeste 0 -- -- 66
2020-11-06 05:00:00 17.2 9 Sudoeste 19 Sudoeste 0 -- -- 75
2020-11-06 04:00:00 17.5 8 Sudeste 32 Noroeste 0 -- -- 82
2020-11-06 03:00:00 15.7 12 Sudeste 18 Sudeste 0 -- -- 75
2020-11-06 02:00:00 15.5 12 Sudeste 18 Sudoeste 0 -- -- 75
2020-11-06 01:00:00 16.9 9 Sur 31 Este 0 -- -- 82
2020-11-06 00:00:00 15.8 10 Sudeste 20 Sur 0 -- -- 80
2020-11-05 23:00:00 15.6 12 Sudeste 15 Sudeste 0 -- -- 74
2020-11-05 22:00:00 16.3 6 Sur 14 Sur 0 -- -- 74
2020-11-05 21:00:00 17.3 8 Sudoeste 24 Oeste 0 -- -- 76
2020-11-05 20:00:00 18.2 10 Noroeste 29 Noroeste 0 -- -- 75
2020-11-05 19:00:00 18.2 8 Este 19 Sudeste 0 -- -- 74
2020-11-05 18:00:00 18.6 8 Oeste 23 Sudoeste 0 -- -- 70
2020-11-05 17:00:00 19.3 14 Oeste 27 Sudoeste 0 -- -- 66
2020-11-05 16:00:00 21.3 9 Oeste 17 Oeste 0 -- -- 60
2020-11-05 15:00:00 21.1 10 Oeste 16 Oeste 0 -- -- 64
2020-11-05 14:00:00 20.7 10 Oeste 17 Oeste 0 -- -- 64
2020-11-05 13:00:00 19.2 8 Oeste 22 Noroeste 0 -- -- 70
2020-11-05 12:00:00 20.5 8 Oeste 18 Oeste 0 -- -- 62
2020-11-05 11:00:00 18.5 11 Oeste 22 Oeste 0 -- -- 70
2020-11-05 10:00:00 18.5 7 Noroeste 17 Noroeste 0 -- -- 73
2020-11-05 09:00:00 18.7 8 Sudoeste 21 Sudoeste 0 -- -- 60
2020-11-05 08:00:00 16.2 10 Sudoeste 22 Sudoeste 0 -- -- 72
2020-11-05 07:00:00 16.4 12 Sudoeste 25 Oeste 0 -- -- 73
2020-11-05 06:00:00 16.3 10 Sudoeste 23 Sudoeste 0 -- -- 76
2020-11-05 05:00:00 15.9 10 Sudoeste 21 Sudoeste 0 -- -- 80
2020-11-05 04:00:00 15.7 9 Sudoeste 17 Sudoeste 0 -- -- 87
2020-11-05 03:00:00 15.5 5 Sudoeste 13 Sudoeste 0 -- -- 92
2020-11-05 02:00:00 15.3 5 Sudoeste 9 Sur 0.2 -- -- 96
2020-11-05 01:00:00 15.2 4 Sur 7 Sur 1.4 -- -- 97
2020-11-05 00:00:00 15.2 2 Sudoeste 10 Noroeste 0.6 -- -- 96
2020-11-04 23:00:00 15.3 6 Sudeste 12 Sudeste 0.6 -- -- 95
2020-11-04 22:00:00 15.5 9 Este 18 Nordeste 1.2 -- -- 94
2020-11-04 21:00:00 16.1 8 Este 24 Este 0.4 -- -- 95
2020-11-04 20:00:00 16 15 Nordeste 23 Este 0.2 -- -- 96
2020-11-04 19:00:00 16.2 10 Este 26 Este 0 -- -- 96
2020-11-04 18:00:00 15.9 18 Nordeste 34 Nordeste 0.8 -- -- 96
2020-11-04 17:00:00 16.3 14 Nordeste 33 Este 1 -- -- 95
2020-11-04 16:00:00 16.3 20 Este 41 Nordeste 0 -- -- 96
2020-11-04 15:00:00 17.3 19 Nordeste 41 Nordeste 0 -- -- 96
2020-11-04 14:00:00 18.2 22 Nordeste 38 Nordeste 0.4 -- -- 94
2020-11-04 13:00:00 18.7 26 Nordeste 37 Nordeste 0.2 -- -- 92
2020-11-04 12:00:00 18 22 Nordeste 35 Nordeste 0 -- -- 94
2020-11-04 11:00:00 18.3 21 Nordeste 35 Nordeste 0.6 -- -- 92
2020-11-04 10:00:00 17.7 23 Nordeste 41 Este 1.8 -- -- 94
2020-11-04 09:00:00 18.6 13 Nordeste 22 Nordeste 0 -- -- 89
2020-11-04 08:00:00 18.4 12 Sudeste 18 Este 0 -- -- 82
2020-11-04 07:00:00 17.8 4 Sur 13 Este 0 -- -- 83
2020-11-04 06:00:00 18.5 9 Este 21 Este 0 -- -- 81
2020-11-04 05:00:00 17.9 11 Este 15 Este 0 -- -- 82
2020-11-04 04:00:00 18.4 10 Este 16 Este 0 -- -- 81
2020-11-04 03:00:00 18.1 10 Este 17 Este 0 -- -- 83
2020-11-04 02:00:00 18 9 Este 21 Este 0 -- -- 79
2020-11-04 01:00:00 18.4 12 Sudeste 23 Este 0 -- -- 78
2020-11-04 00:00:00 18.2 14 Este 24 Este 0 -- -- 76
2020-11-03 23:00:00 18.3 14 Este 21 Este 0 -- -- 78
2020-11-03 22:00:00 18.9 6 Sudeste 15 Nordeste 0 -- -- 80
2020-11-03 21:00:00 19 10 Este 28 Este 0 -- -- 84
2020-11-03 20:00:00 18.9 13 Este 23 Este 0 -- -- 87
2020-11-03 19:00:00 19.2 9 Nordeste 24 Nordeste 0 -- -- 85
2020-11-03 18:00:00 20.4 12 Nordeste 28 Nordeste 0 -- -- 81
2020-11-03 17:00:00 20.5 14 Nordeste 23 Nordeste 0 -- -- 81
2020-11-03 16:00:00 21.4 15 Nordeste 27 Nordeste 0 -- -- 75
2020-11-03 15:00:00 20.4 14 Nordeste 30 Nordeste 0.2 -- -- 85
2020-11-03 14:00:00 22.2 19 Nordeste 32 Nordeste 0 -- -- 74
2020-11-03 13:00:00 22.2 23 Nordeste 35 Nordeste 0 -- -- 71
2020-11-03 12:00:00 21.5 20 Nordeste 31 Nordeste 0 -- -- 76
2020-11-03 11:00:00 20.4 19 Nordeste 30 Nordeste 0 -- -- 83
2020-11-03 10:00:00 20.1 13 Nordeste 23 Nordeste 0 -- -- 82
2020-11-03 09:00:00 19.1 11 Nordeste 17 Este 0 -- -- 86
2020-11-03 08:00:00 17.9 8 Este 13 Sudeste 0 -- -- 89
2020-11-03 07:00:00 18.3 8 Este 16 Este 0 -- -- 90
2020-11-03 06:00:00 18 10 Este 16 Este 0 -- -- 90
2020-11-03 05:00:00 18.4 9 Este 16 Nordeste 0 -- -- 88
2020-11-03 04:00:00 18.4 5 Este 18 Nordeste 0 -- -- 90
2020-11-03 03:00:00 18.6 8 Nordeste 17 Nordeste 0 -- -- 90
2020-11-03 02:00:00 18.5 8 Sudeste 12 Este 0 -- -- 89
2020-11-03 01:00:00 18.6 7 Este 12 Nordeste 0 -- -- 90
2020-11-03 00:00:00 18.6 6 Nordeste 13 Este 0 -- -- 89
2020-11-02 23:00:00 18.5 10 Este 15 Este 0 -- -- 88
2020-11-02 22:00:00 18.1 9 Sudeste 14 Este 0 -- -- 87
2020-11-02 21:00:00 18.6 10 Sudeste 14 Sudeste 0 -- -- 88
2020-11-02 20:00:00 18.7 8 Este 11 Este 0 -- -- 89
2020-11-02 19:00:00 19.2 5 Este 10 Este 0 -- -- 88
2020-11-02 18:00:00 19.8 6 Nordeste 16 Este 0 -- -- 83
2020-11-02 17:00:00 20.9 8 Nordeste 17 Nordeste 0 -- -- 79
2020-11-02 16:00:00 20.8 12 Nordeste 19 Nordeste 0 -- -- 79
2020-11-02 15:00:00 21.3 11 Nordeste 18 Nordeste 0 -- -- 74
2020-11-02 14:00:00 22.7 12 Nordeste 21 Este 0 -- -- 69
2020-11-02 13:00:00 23.1 12 Nordeste 26 Nordeste 0 -- -- 67
2020-11-02 12:00:00 23.3 13 Nordeste 24 Nordeste 0 -- -- 68
2020-11-02 11:00:00 20.7 14 Nordeste 21 Nordeste 0 -- -- 79
2020-11-02 10:00:00 20.4 14 Nordeste 21 Este 0 -- -- 76
2020-11-02 09:00:00 20.1 11 Este 18 Este 0 -- -- 71
2020-11-02 08:00:00 17.6 11 Sudeste 16 Sudeste 0 -- -- 47
2020-11-02 07:00:00 16.8 12 Sudeste 21 Sudeste 0 -- -- 45
2020-11-02 06:00:00 17.3 10 Sudeste 17 Sudeste 0 -- -- 39
2020-11-02 05:00:00 17.5 7 Sudeste 14 Sudeste 0 -- -- 38
2020-11-02 04:00:00 17.6 9 Sudeste 13 Sudeste 0 -- -- 37
2020-11-02 03:00:00 18 5 Sudeste 10 Sudeste 0 -- -- 38
2020-11-02 02:00:00 18.2 5 Sudeste 10 Sudeste 0 -- -- 53
2020-11-02 01:00:00 19.5 4 Sur 14 Este 0 -- -- 32
2020-11-02 00:00:00 21.2 10 Sudeste 14 Este 0 -- -- 29
2020-11-01 23:00:00 20 6 Este 11 Este 0 -- -- 39
2020-11-01 22:00:00 20.5 0 Calma 19 Este 0 -- -- 60
2020-11-01 21:00:00 23.2 15 Este 24 Este 0 -- -- 24
2020-11-01 20:00:00 24 15 Sudeste 25 Este 0 -- -- 22
2020-11-01 19:00:00 24.9 18 Sudeste 32 Este 0 -- -- 20
2020-11-01 18:00:00 25.7 17 Sudeste 36 Sudeste 0 -- -- 23
2020-11-01 17:00:00 27.5 17 Este 32 Sudeste 0 -- -- 22
2020-11-01 16:00:00 28.6 21 Este 41 Sudeste 0 -- -- 23
2020-11-01 15:00:00 28.8 22 Sudeste 45 Sudeste 0 -- -- 21
2020-11-01 14:00:00 29 28 Sudeste 45 Sudeste 0 -- -- 18
2020-11-01 13:00:00 28.7 25 Sudeste 45 Este 0 -- -- 21
2020-11-01 12:00:00 28.3 23 Sudeste 50 Este 0 -- -- 23
2020-11-01 11:00:00 27.3 23 Sudeste 42 Sudeste 0 -- -- 25
2020-11-01 10:00:00 26.1 27 Sudeste 45 Este 0 -- -- 28
2020-11-01 09:00:00 25.1 31 Este 49 Sudeste 0 -- -- 30
2020-11-01 08:00:00 24 29 Este 48 Sudeste 0 -- -- 27
2020-11-01 07:00:00 22.8 31 Sudeste 51 Sudeste 0 -- -- 32
2020-11-01 06:00:00 23.3 36 Este 55 Sudeste 0 -- -- 30
2020-11-01 05:00:00 24.1 24 Este 45 Sudeste 0 -- -- 25
2020-11-01 04:00:00 25.3 21 Sudeste 44 Sudeste 0 -- -- 22
2020-11-01 03:00:00 26.1 23 Sudeste 53 Sudeste 0 -- -- 22
2020-11-01 02:00:00 25.9 22 Este 46 Sudeste 0 -- -- 23
2020-11-01 01:00:00 26.3 21 Sudeste 44 Sudeste 0 -- -- 22
2020-11-01 00:00:00 25.5 23 Este 41 Este 0 -- -- 23
2020-10-31 23:00:00 25.6 21 Sudeste 42 Este 0 -- -- 23
2020-10-31 22:00:00 24.7 25 Sudeste 43 Sudeste 0 -- -- 24
2020-10-31 21:00:00 24.8 27 Este 45 Este 0 -- -- 23
2020-10-31 20:00:00 25.4 24 Sudeste 44 Sudeste 0 -- -- 23
2020-10-31 19:00:00 25.7 26 Sudeste 46 Sudeste 0 -- -- 23
2020-10-31 18:00:00 26.5 21 Sudeste 45 Sudeste 0 -- -- 22
2020-10-31 17:00:00 27.6 24 Sudeste 44 Sudeste 0 -- -- 21
2020-10-31 16:00:00 29.4 18 Sudeste 44 Sudeste 0 -- -- 19
2020-10-31 15:00:00 29.5 25 Sudeste 48 Este 0 -- -- 19
2020-10-31 14:00:00 29.4 14 Sudeste 43 Sudeste 0 -- -- 23
2020-10-31 13:00:00 28.9 22 Sudeste 49 Sudeste 0 -- -- 24
2020-10-31 12:00:00 28.5 22 Sudeste 57 Sudeste 0 -- -- 25
2020-10-31 11:00:00 27.2 26 Sudeste 46 Sudeste 0 -- -- 26
2020-10-31 10:00:00 27.2 13 Sudeste 39 Sudeste 0 -- -- 27
2020-10-31 09:00:00 24.9 23 Sudeste 36 Sudeste 0 -- -- 32
2020-10-31 08:00:00 23.1 17 Sudeste 39 Este 0 -- -- 38
2020-10-31 07:00:00 20.4 8 Sur 32 Sur 0 -- -- 67
2020-10-31 06:00:00 23.2 8 Noroeste 20 Noroeste 0 -- -- 34
2020-10-31 05:00:00 21.6 6 Oeste 22 Sudeste 0 -- -- 42
2020-10-31 04:00:00 23 7 Sudeste 24 Nordeste 0 -- -- 32
2020-10-31 03:00:00 21 17 Nordeste 28 Este 0 -- -- 41
2020-10-31 02:00:00 20.2 12 Nordeste 24 Este 0 -- -- 62
2020-10-31 01:00:00 19.5 9 Nordeste 15 Nordeste 0 -- -- 44
2020-10-31 00:00:00 17.9 5 Nordeste 13 Sur 0 -- -- 91
2020-10-30 23:00:00 17.6 4 Este 14 Sudeste 0 -- -- 91
2020-10-30 22:00:00 17.6 4 Sur 12 Sur 0 -- -- 89
2020-10-30 21:00:00 17.8 6 Este 13 Sudeste 0 -- -- 89
2020-10-30 20:00:00 17.7 8 Sur 10 Sur 0 -- -- 89
2020-10-30 19:00:00 18.6 8 Este 10 Sudeste 0 -- -- 89
2020-10-30 18:00:00 20.9 3 Este 10 Nordeste 0 -- -- 79
2020-10-30 17:00:00 20.8 8 Nordeste 12 Norte 0 -- -- 82
2020-10-30 16:00:00 20.9 5 Norte 15 Noroeste 0 -- -- 84
2020-10-30 15:00:00 21.7 8 Nordeste 17 Nordeste 0 -- -- 80
2020-10-30 14:00:00 21.9 10 Nordeste 20 Nordeste 0 -- -- 78
2020-10-30 13:00:00 21.1 10 Nordeste 21 Nordeste 0 -- -- 79
2020-10-30 12:00:00 20.9 8 Norte 15 Noroeste 0 -- -- 81
2020-10-30 11:00:00 21.6 7 Nordeste 16 Norte 0 -- -- 78
2020-10-30 10:00:00 21.6 9 Norte 16 Nordeste 0 -- -- 76
2020-10-30 09:00:00 20 8 Este 14 Este 0 -- -- 85
2020-10-30 08:00:00 17.5 10 Sudeste 13 Este 0 -- -- 90
2020-10-30 07:00:00 17.4 11 Este 13 Este 0 -- -- 90
2020-10-30 06:00:00 18.2 8 Este 11 Este 0 -- -- 89
2020-10-30 05:00:00 17.8 6 Sudeste 9 Sudeste 0 -- -- 89
2020-10-30 04:00:00 17.8 6 Sudeste 10 Este 0 -- -- 89
2020-10-30 03:00:00 18.3 7 Sudeste 11 Sudeste 0 -- -- 89
2020-10-30 02:00:00 17.9 9 Este 14 Este 0 -- -- 89
2020-10-30 01:00:00 18.2 8 Este 14 Este 0 -- -- 89
2020-10-30 00:00:00 18.4 10 Este 13 Este 0 -- -- 87
2020-10-29 23:00:00 18.3 3 Sudeste 7 Sur 0 -- -- 86
2020-10-29 22:00:00 17.8 5 Sur 10 Sudeste 0 -- -- 83
2020-10-29 21:00:00 17.3 7 Sur 9 Sudeste 0 -- -- 85
2020-10-29 20:00:00 17.7 7 Sudeste 10 Este 0 -- -- 83
2020-10-29 19:00:00 18.5 4 Nordeste 15 Nordeste 0 -- -- 82
2020-10-29 18:00:00 19.3 10 Nordeste 20 Este 0 -- -- 78
2020-10-29 17:00:00 20.7 12 Nordeste 21 Norte 0 -- -- 73
2020-10-29 16:00:00 21.6 11 Norte 25 Norte 0 -- -- 66
2020-10-29 15:00:00 22.9 9 Noroeste 21 Noroeste 0 -- -- 59
2020-10-29 14:00:00 22 9 Norte 17 Norte 0 -- -- 61
2020-10-29 13:00:00 21.1 9 Noroeste 16 Noroeste 0 -- -- 66
2020-10-29 12:00:00 20.8 9 Norte 15 Norte 0 -- -- 64
2020-10-29 11:00:00 20 7 Norte 20 Nordeste 0 -- -- 69
2020-10-29 10:00:00 19.7 5 Nordeste 11 Nordeste 0 -- -- 67
2020-10-29 09:00:00 18.8 10 Nordeste 17 Nordeste 0 -- -- 72
2020-10-29 08:00:00 18.2 5 Este 14 Norte 0 -- -- 75
2020-10-29 07:00:00 18 3 Nordeste 9 Noroeste 0 -- -- 71
2020-10-29 06:00:00 18 0 Calma 14 Norte 0 -- -- 69
2020-10-29 05:00:00 18 6 Este 15 Nordeste 0 -- -- 69
2020-10-29 04:00:00 17.9 6 Nordeste 12 Nordeste 0 -- -- 75
2020-10-29 03:00:00 17.8 0 Calma 8 Nordeste 0 -- -- 77
2020-10-29 02:00:00 17.9 3 Sudeste 15 Este 0 -- -- 72
2020-10-29 01:00:00 17.8 4 Sudeste 12 Este 0 -- -- 77
2020-10-29 00:00:00 17.8 9 Nordeste 18 Nordeste 0 -- -- 80
2020-10-28 23:00:00 17.7 2 Sudeste 13 Nordeste 0 -- -- 85
2020-10-28 22:00:00 17.6 14 Este 20 Nordeste 0 -- -- 84
2020-10-28 21:00:00 17.5 9 Nordeste 20 Este 0.4 -- -- 89
2020-10-28 20:00:00 17.7 5 Este 19 Este 0.4 -- -- 87
2020-10-28 19:00:00 18.7 9 Nordeste 15 Nordeste 0 -- -- 77
2020-10-28 18:00:00 18.7 3 Sudeste 23 Nordeste 0 -- -- 74
2020-10-28 17:00:00 19.1 11 Norte 23 Norte 0 -- -- 75
2020-10-28 16:00:00 20.2 17 Nordeste 27 Nordeste 0 -- -- 67
2020-10-28 15:00:00 20.1 12 Norte 24 Norte 0 -- -- 75
2020-10-28 14:00:00 20.5 8 Norte 23 Nordeste 0 -- -- 66
2020-10-28 13:00:00 20.6 14 Nordeste 29 Nordeste 0 -- -- 67
2020-10-28 12:00:00 19.8 9 Norte 18 Norte 0 -- -- 72
2020-10-28 11:00:00 19.4 9 Nordeste 21 Nordeste 0 -- -- 70
2020-10-28 10:00:00 19.4 14 Nordeste 21 Nordeste 0 -- -- 65
2020-10-28 09:00:00 18.7 12 Nordeste 19 Nordeste 0 -- -- 70
2020-10-28 08:00:00 18.2 5 Nordeste 17 Nordeste 0 -- -- 74
2020-10-28 07:00:00 18.2 10 Nordeste 20 Nordeste 0 -- -- 71
2020-10-28 06:00:00 18.1 9 Nordeste 17 Nordeste 0 -- -- 77
2020-10-28 05:00:00 17.8 10 Este 19 Nordeste 0 -- -- 77
2020-10-28 04:00:00 17.8 11 Este 19 Nordeste 0 -- -- 80
2020-10-28 03:00:00 18.4 6 Este 14 Este 0 -- -- 74
2020-10-28 02:00:00 18.1 8 Este 12 Este 0 -- -- 82
2020-10-28 01:00:00 17.9 6 Sur 20 Este 0 -- -- 83
2020-10-28 00:00:00 17.9 8 Este 14 Nordeste 0 -- -- 87
2020-10-27 23:00:00 18.1 5 Sudeste 9 Sudeste 0 -- -- 82
2020-10-27 22:00:00 17.6 7 Sudeste 17 Este 0 -- -- 79
2020-10-27 21:00:00 17.5 13 Este 18 Este 0 -- -- 84
2020-10-27 20:00:00 17.7 9 Este 22 Este 0 -- -- 84
2020-10-27 19:00:00 18.3 15 Nordeste 25 Este 0 -- -- 83
2020-10-27 18:00:00 19 15 Nordeste 29 Nordeste 0 -- -- 79
2020-10-27 17:00:00 20.1 17 Nordeste 27 Nordeste 0 -- -- 78
2020-10-27 16:00:00 21.6 14 Nordeste 24 Norte 0 -- -- 73
2020-10-27 15:00:00 23.1 9 Norte 20 Norte 0 -- -- 64
2020-10-27 14:00:00 22.2 9 Norte 22 Norte 0 -- -- 61
2020-10-27 13:00:00 22.6 10 Norte 29 Nordeste 0 -- -- 59
2020-10-27 12:00:00 21.3 17 Nordeste 33 Nordeste 0 -- -- 67
2020-10-27 11:00:00 20.7 21 Nordeste 33 Este 0 -- -- 78
2020-10-27 10:00:00 19.7 19 Nordeste 30 Nordeste 0 -- -- 85
2020-10-27 09:00:00 19.1 9 Nordeste 15 Nordeste 0 -- -- 90
2020-10-27 08:00:00 17.7 7 Sudeste 15 Sudeste 0.2 -- -- 91
2020-10-27 07:00:00 16.6 9 Sudeste 14 Sudeste 0 -- -- 86
2020-10-27 06:00:00 16.4 10 Sudeste 17 Sudeste 0 -- -- 82
2020-10-27 05:00:00 16.4 12 Sudeste 18 Sudeste 0 -- -- 84
2020-10-27 04:00:00 16.7 12 Sudeste 18 Este 0 -- -- 87
2020-10-27 03:00:00 17.8 10 Sudeste 16 Sudeste 0 -- -- 86
2020-10-27 02:00:00 17.1 9 Sudeste 14 Sudeste 0 -- -- 84
2020-10-27 01:00:00 16.9 12 Sudeste 15 Sudeste 0 -- -- 83
2020-10-27 00:00:00 16.9 12 Sudeste 18 Sudeste 0 -- -- 82